createdAt,value
2018-10-12T00:00:57.222Z,13.47
2018-10-12T00:03:24.559Z,12.57
2018-10-12T00:05:51.925Z,13.13
2018-10-12T00:08:19.285Z,15.00
2018-10-12T00:10:46.645Z,13.70
2018-10-12T00:13:14.010Z,14.00
2018-10-12T00:15:41.467Z,13.17
2018-10-12T00:18:08.806Z,13.93
2018-10-12T00:20:36.366Z,13.30
2018-10-12T00:23:04.570Z,13.60
2018-10-12T00:25:32.400Z,14.30
2018-10-12T00:27:59.798Z,13.57
2018-10-12T00:30:27.283Z,13.83
2018-10-12T00:32:54.621Z,13.30
2018-10-12T00:35:21.990Z,14.17
2018-10-12T00:37:49.358Z,14.00
2018-10-12T00:40:16.725Z,14.80
2018-10-12T00:42:44.117Z,13.63
2018-10-12T00:45:11.511Z,12.30
2018-10-12T00:47:38.937Z,13.40
2018-10-12T00:50:06.805Z,14.40
2018-10-12T00:52:35.106Z,14.20
2018-10-12T00:55:03.387Z,13.13
2018-10-12T00:57:31.413Z,14.20
2018-10-12T00:59:58.886Z,12.23
2018-10-12T01:02:26.280Z,14.70
2018-10-12T01:04:53.621Z,13.83
2018-10-12T01:07:20.984Z,12.73
2018-10-12T01:09:48.337Z,14.50
2018-10-12T01:12:22.069Z,12.47
2018-10-12T01:14:49.404Z,14.10
2018-10-12T01:17:16.770Z,14.00
2018-10-12T01:19:44.184Z,15.70
2018-10-12T01:22:11.619Z,14.70
2018-10-12T01:24:39.116Z,15.50
2018-10-12T01:27:06.790Z,15.40
2018-10-12T01:29:34.415Z,16.53
2018-10-12T01:32:01.942Z,15.17
2018-10-12T01:34:29.314Z,14.20
2018-10-12T01:36:56.680Z,14.40
2018-10-12T01:39:23.992Z,14.37
2018-10-12T01:41:51.374Z,14.80
2018-10-12T01:44:18.731Z,14.07
2018-10-12T01:46:46.167Z,12.70
2018-10-12T01:49:13.662Z,14.47
2018-10-12T01:51:41.032Z,13.73
2018-10-12T01:54:08.526Z,14.33
2018-10-12T01:56:36.212Z,14.50
2018-10-12T01:59:03.995Z,14.83
2018-10-12T02:01:31.742Z,13.80
2018-10-12T02:03:59.655Z,14.90
2018-10-12T02:06:26.986Z,14.10
2018-10-12T02:08:55.173Z,14.33
2018-10-12T02:11:22.799Z,14.50
2018-10-12T02:13:50.262Z,15.77
2018-10-12T02:16:17.611Z,13.97
2018-10-12T02:18:45.000Z,13.97
2018-10-12T02:21:12.402Z,15.40
2018-10-12T02:23:39.755Z,14.17
2018-10-12T02:26:07.093Z,13.20
2018-10-12T02:28:34.630Z,13.77
2018-10-12T02:31:01.982Z,15.87
2018-10-12T02:33:29.522Z,14.67
2018-10-12T02:35:57.092Z,15.33
2018-10-12T02:38:24.729Z,13.40
2018-10-12T02:40:52.072Z,14.43
2018-10-12T02:43:19.526Z,14.00
2018-10-12T02:45:46.866Z,14.40
2018-10-12T02:48:14.263Z,15.60
2018-10-12T02:50:41.602Z,15.20
2018-10-12T02:53:08.981Z,14.50
2018-10-12T02:55:36.326Z,14.57
2018-10-12T02:58:03.830Z,15.17
2018-10-12T03:00:31.302Z,17.40
2018-10-12T03:02:58.813Z,15.87
2018-10-12T03:05:26.619Z,18.17
2018-10-12T03:07:54.231Z,15.00
2018-10-12T03:10:21.620Z,14.00
2018-10-12T03:12:49.372Z,14.70
2018-10-12T03:15:17.028Z,14.40
2018-10-12T03:17:44.740Z,13.97
2018-10-12T03:20:12.415Z,13.00
2018-10-12T03:22:39.763Z,14.53
2018-10-12T03:25:07.194Z,14.83
2018-10-12T03:27:40.170Z,14.17
2018-10-12T03:30:07.556Z,14.73
2018-10-12T03:32:34.961Z,13.47
2018-10-12T03:35:02.516Z,13.90
2018-10-12T03:37:29.935Z,13.60
2018-10-12T03:39:57.736Z,13.47
2018-10-12T03:42:25.615Z,13.70
2018-10-12T03:44:53.014Z,12.90
2018-10-12T03:47:20.345Z,13.80
2018-10-12T03:49:47.730Z,14.70
2018-10-12T03:52:15.095Z,13.63
2018-10-12T03:54:42.465Z,12.70
2018-10-12T03:57:09.814Z,13.37
2018-10-12T03:59:37.188Z,14.33
2018-10-12T04:02:04.601Z,13.03
2018-10-12T04:04:32.146Z,14.10
2018-10-12T04:06:59.718Z,15.30
2018-10-12T04:09:27.597Z,13.33
2018-10-12T04:11:55.070Z,13.83
2018-10-12T04:14:22.472Z,13.97
2018-10-12T04:16:49.880Z,12.87
2018-10-12T04:19:17.304Z,13.23
2018-10-12T04:21:44.693Z,13.07
2018-10-12T04:24:12.380Z,13.57
2018-10-12T04:26:40.113Z,13.00
2018-10-12T04:29:07.910Z,14.40
2018-10-12T04:31:35.481Z,13.47
2018-10-12T04:34:03.034Z,14.37
2018-10-12T04:36:30.589Z,14.40
2018-10-12T04:39:04.663Z,13.57
2018-10-12T04:41:32.382Z,13.47
2018-10-12T04:44:01.988Z,13.07
2018-10-12T04:46:32.193Z,14.13
2018-10-12T04:49:00.115Z,13.93
2018-10-12T04:51:34.322Z,12.13
2018-10-12T04:54:01.875Z,11.80
2018-10-12T04:56:29.507Z,12.47
2018-10-12T04:58:57.233Z,15.37
2018-10-12T05:01:24.732Z,14.13
2018-10-12T05:03:52.128Z,14.60
2018-10-12T05:06:19.557Z,12.20
2018-10-12T05:08:46.951Z,12.80
2018-10-12T05:11:14.342Z,12.00
2018-10-12T05:13:41.711Z,13.30
2018-10-12T05:16:09.105Z,13.37
2018-10-12T05:18:36.732Z,12.33
2018-10-12T05:21:04.913Z,11.03
2018-10-12T05:23:32.355Z,12.17
2018-10-12T05:26:00.651Z,11.70
2018-10-12T05:28:29.238Z,11.57
2018-10-12T05:30:57.062Z,13.50
2018-10-12T05:33:24.503Z,10.83
2018-10-12T05:35:51.877Z,10.90
2018-10-12T05:38:19.356Z,12.27
2018-10-12T05:40:46.722Z,10.20
2018-10-12T05:43:14.966Z,12.63
2018-10-12T05:45:42.342Z,11.13
2018-10-12T05:48:15.308Z,11.63
2018-10-12T05:50:42.725Z,9.80
2018-10-12T05:53:10.157Z,11.00
2018-10-12T05:55:37.722Z,10.30
2018-10-12T05:58:05.517Z,12.00
2018-10-12T06:00:32.998Z,10.67
2018-10-12T06:03:00.651Z,11.80
2018-10-12T06:05:28.414Z,13.20
2018-10-12T06:07:55.858Z,12.20
2018-10-12T06:10:23.215Z,11.33
2018-10-12T06:12:50.597Z,12.33
2018-10-12T06:15:17.962Z,13.17
2018-10-12T06:17:45.616Z,27.70
2018-10-12T06:20:12.962Z,12.30
2018-10-12T06:22:40.331Z,11.20
2018-10-12T06:25:07.810Z,12.27
2018-10-12T06:27:35.271Z,12.90
2018-10-12T06:30:02.783Z,11.70
2018-10-12T06:32:30.454Z,12.93
2018-10-12T06:34:58.020Z,10.90
2018-10-12T06:37:25.383Z,12.50
2018-10-12T06:39:52.734Z,12.57
2018-10-12T06:42:20.113Z,12.00
2018-10-12T06:44:47.549Z,12.73
2018-10-12T06:47:15.178Z,13.37
2018-10-12T06:49:42.572Z,13.97
2018-10-12T06:52:10.078Z,14.83
2018-10-12T06:54:37.411Z,13.90
2018-10-12T06:57:04.871Z,14.17
2018-10-12T06:59:32.374Z,13.60
2018-10-12T07:02:00.348Z,14.80
2018-10-12T07:04:27.830Z,13.70
2018-10-12T07:06:55.212Z,14.17
2018-10-12T07:09:22.583Z,14.50
2018-10-12T07:11:49.937Z,13.10
2018-10-12T07:14:17.281Z,13.80
2018-10-12T07:16:44.616Z,13.43
2018-10-12T07:19:12.007Z,13.30
2018-10-12T07:21:39.578Z,15.73
2018-10-12T07:24:07.187Z,15.03
2018-10-12T07:26:34.773Z,14.80
2018-10-12T07:29:02.472Z,16.90
2018-10-12T07:31:30.135Z,17.20
2018-10-12T07:33:57.484Z,13.33
2018-10-12T07:36:24.859Z,14.70
2018-10-12T07:38:52.217Z,13.67
2018-10-12T07:41:19.558Z,12.47
2018-10-12T07:43:46.939Z,12.80
2018-10-12T07:46:14.289Z,12.03
2018-10-12T07:48:41.782Z,12.50
2018-10-12T07:51:09.166Z,10.20
2018-10-12T07:53:36.693Z,9.80
2018-10-12T07:56:04.648Z,11.10
2018-10-12T07:58:32.479Z,11.60
2018-10-12T08:00:59.967Z,11.60
2018-10-12T08:03:27.362Z,11.23
2018-10-12T08:05:54.708Z,9.83
2018-10-12T08:08:22.083Z,9.70
2018-10-12T08:10:49.478Z,10.37
2018-10-12T08:13:16.859Z,9.63
2018-10-12T08:15:44.240Z,9.63
2018-10-12T08:18:11.843Z,8.73
2018-10-12T08:20:39.169Z,8.63
2018-10-12T08:23:06.645Z,8.63
2018-10-12T08:25:34.220Z,8.80
2018-10-12T08:28:02.117Z,7.37
2018-10-12T08:30:29.498Z,7.87
2018-10-12T08:32:56.903Z,8.47
2018-10-12T08:35:24.316Z,8.00
2018-10-12T08:37:51.665Z,7.00
2018-10-12T08:40:19.020Z,6.40
2018-10-12T08:42:46.374Z,6.97
2018-10-12T08:45:13.729Z,7.90
2018-10-12T08:47:41.059Z,7.37
2018-10-12T08:50:08.516Z,6.90
2018-10-12T08:52:36.009Z,6.60
2018-10-12T08:55:04.139Z,7.30
2018-10-12T08:57:31.672Z,7.40
2018-10-12T08:59:59.105Z,6.87
2018-10-12T09:02:26.448Z,7.30
2018-10-12T09:04:53.839Z,6.60
2018-10-12T09:07:21.190Z,6.90
2018-10-12T09:09:48.580Z,6.30
2018-10-12T09:12:15.923Z,7.40
2018-10-12T09:14:43.442Z,6.77
2018-10-12T09:17:10.834Z,7.83
2018-10-12T09:19:38.269Z,6.10
2018-10-12T09:22:05.821Z,6.37
2018-10-12T09:24:33.589Z,6.27
2018-10-12T09:27:01.011Z,7.10
2018-10-12T09:29:28.377Z,5.10
2018-10-12T09:31:55.746Z,5.50
2018-10-12T09:34:23.125Z,5.30
2018-10-12T09:36:50.552Z,5.03
2018-10-12T09:39:17.886Z,5.50
2018-10-12T09:41:45.233Z,6.60
2018-10-12T09:44:12.756Z,5.27
2018-10-12T09:46:40.266Z,5.40
2018-10-12T09:49:07.968Z,6.00
2018-10-12T09:51:35.651Z,4.90
2018-10-12T09:54:03.291Z,5.67
2018-10-12T09:56:30.703Z,7.90
2018-10-12T09:58:58.075Z,15.37
2018-10-12T10:01:30.717Z,7.20
2018-10-12T10:04:03.695Z,5.80
2018-10-12T10:06:31.042Z,5.57
2018-10-12T10:08:58.437Z,6.10
2018-10-12T10:11:25.747Z,4.93
2018-10-12T10:13:53.590Z,5.73
2018-10-12T10:16:20.921Z,4.70
2018-10-12T10:18:48.273Z,6.20
2018-10-12T10:21:15.993Z,4.53
2018-10-12T10:23:43.431Z,4.27
2018-10-12T10:26:10.961Z,5.30
2018-10-12T10:28:38.533Z,5.00
2018-10-12T10:31:06.320Z,5.40
2018-10-12T10:33:33.782Z,4.70
2018-10-12T10:36:01.640Z,4.00
2018-10-12T10:38:28.512Z,5.43
2018-10-12T10:40:55.864Z,4.50
2018-10-12T10:43:23.223Z,3.67
2018-10-12T10:45:50.590Z,3.57
2018-10-12T10:48:17.946Z,4.20
2018-10-12T10:50:45.380Z,5.30
2018-10-12T10:53:12.831Z,4.70
2018-10-12T10:55:40.302Z,3.27
2018-10-12T10:58:07.854Z,3.87
2018-10-12T11:00:35.695Z,3.30
2018-10-12T11:03:03.051Z,3.33
2018-10-12T11:05:30.406Z,3.40
2018-10-12T11:07:57.751Z,4.00
2018-10-12T11:10:25.126Z,3.57
2018-10-12T11:12:52.572Z,3.07
2018-10-12T11:15:19.936Z,3.10
2018-10-12T11:17:47.265Z,3.37
2018-10-12T11:20:14.694Z,3.80
2018-10-12T11:22:42.128Z,3.50
2018-10-12T11:25:09.958Z,3.70
2018-10-12T11:27:37.844Z,3.23
2018-10-12T11:30:05.633Z,2.80
2018-10-12T11:32:32.977Z,3.40
2018-10-12T11:35:00.330Z,3.50
2018-10-12T11:37:27.678Z,3.40
2018-10-12T11:39:55.071Z,12.60
2018-10-12T11:42:22.411Z,4.60
2018-10-12T11:44:50.003Z,3.40
2018-10-12T11:47:17.483Z,3.07
2018-10-12T11:49:44.828Z,2.70
2018-10-12T11:52:12.436Z,5.33
2018-10-12T11:54:39.938Z,6.57
2018-10-12T11:57:07.552Z,3.27
2018-10-12T11:59:34.995Z,3.70
2018-10-12T12:02:02.372Z,3.03
2018-10-12T12:04:29.736Z,2.80
2018-10-12T12:06:57.090Z,3.20
2018-10-12T12:09:24.414Z,3.33
2018-10-12T12:11:51.758Z,3.50
2018-10-12T12:14:19.105Z,3.27
2018-10-12T12:16:46.655Z,2.70
2018-10-12T12:19:14.088Z,3.10
2018-10-12T12:21:41.593Z,2.40
2018-10-12T12:24:09.266Z,3.00
2018-10-12T12:26:36.853Z,3.10
2018-10-12T12:29:04.176Z,3.43
2018-10-12T12:31:31.577Z,2.67
2018-10-12T12:33:58.926Z,2.73
2018-10-12T12:36:26.287Z,2.70
2018-10-12T12:38:53.628Z,3.20
2018-10-12T12:41:20.995Z,2.97
2018-10-12T12:43:48.440Z,2.57
2018-10-12T12:46:16.238Z,2.87
2018-10-12T12:48:44.003Z,9.30
2018-10-12T12:51:11.947Z,3.87
2018-10-12T12:53:39.694Z,3.30
2018-10-12T12:56:07.402Z,3.20
2018-10-12T12:58:34.735Z,2.40
2018-10-12T13:01:02.116Z,2.47
2018-10-12T13:03:29.468Z,2.90
2018-10-12T13:05:56.864Z,2.30
2018-10-12T13:08:24.205Z,2.43
2018-10-12T13:10:51.593Z,2.50
2018-10-12T13:13:19.066Z,2.17
2018-10-12T13:15:46.458Z,2.50
2018-10-12T13:18:13.921Z,2.50
2018-10-12T13:20:41.560Z,2.47
2018-10-12T13:23:09.355Z,2.07
2018-10-12T13:25:36.784Z,3.60
2018-10-12T13:28:04.189Z,2.87
2018-10-12T13:30:32.395Z,2.63
2018-10-12T13:32:59.775Z,2.57
2018-10-12T13:35:27.114Z,2.53
2018-10-12T13:37:54.532Z,2.40
2018-10-12T13:40:21.867Z,3.10
2018-10-12T13:42:49.378Z,2.40
2018-10-12T13:45:16.705Z,2.13
2018-10-12T13:47:44.276Z,2.30
2018-10-12T13:50:11.952Z,2.43
2018-10-12T13:52:39.766Z,2.33
2018-10-12T13:55:07.238Z,2.43
2018-10-12T13:57:34.596Z,2.07
2018-10-12T14:00:01.930Z,1.97
2018-10-12T14:02:29.300Z,2.47
2018-10-12T14:04:56.651Z,2.63
2018-10-12T14:07:24.015Z,2.80
2018-10-12T14:09:51.380Z,2.00
2018-10-12T14:12:18.883Z,2.13
2018-10-12T14:14:46.339Z,2.70
2018-10-12T14:17:13.907Z,3.10
2018-10-12T14:19:41.582Z,2.57
2018-10-12T14:22:09.134Z,2.80
2018-10-12T14:24:36.479Z,2.20
2018-10-12T14:27:03.939Z,7.70
2018-10-12T14:29:31.261Z,2.30
2018-10-12T14:31:58.620Z,2.47
2018-10-12T14:34:25.968Z,2.20
2018-10-12T14:36:53.354Z,2.50
2018-10-12T14:39:20.838Z,2.00
2018-10-12T14:41:48.207Z,2.13
2018-10-12T14:44:15.912Z,2.33
2018-10-12T14:46:43.408Z,2.30
2018-10-12T14:49:10.936Z,2.30
2018-10-12T14:51:38.322Z,2.40
2018-10-12T14:54:05.686Z,2.77
2018-10-12T14:56:33.011Z,3.47
2018-10-12T14:59:00.464Z,2.03
2018-10-12T15:01:27.711Z,2.03
2018-10-12T15:03:55.063Z,2.40
2018-10-12T15:06:22.427Z,2.90
2018-10-12T15:08:49.862Z,2.20
2018-10-12T15:11:17.497Z,2.23
2018-10-12T15:13:45.019Z,2.43
2018-10-12T15:16:12.786Z,2.10
2018-10-12T15:18:40.576Z,2.20
2018-10-12T15:21:08.065Z,2.53
2018-10-12T15:23:35.360Z,2.30
2018-10-12T15:26:02.739Z,2.10
2018-10-12T15:28:30.090Z,2.00
2018-10-12T15:30:57.427Z,2.70
2018-10-12T15:33:24.766Z,2.30
2018-10-12T15:35:52.260Z,1.70
2018-10-12T15:38:19.603Z,1.93
2018-10-12T15:40:47.270Z,2.20
2018-10-12T15:43:14.866Z,2.37
2018-10-12T15:45:42.748Z,3.03
2018-10-12T15:48:10.279Z,3.00
2018-10-12T15:50:37.650Z,3.60
2018-10-12T15:53:05.014Z,2.70
2018-10-12T15:55:32.342Z,3.03
2018-10-12T15:57:59.671Z,1.90
2018-10-12T16:00:27.009Z,3.00
2018-10-12T16:02:54.323Z,3.67
2018-10-12T16:05:21.785Z,2.67
2018-10-12T16:07:49.527Z,2.30
2018-10-12T16:10:16.966Z,2.80
2018-10-12T16:12:44.650Z,2.57
2018-10-12T16:15:12.431Z,2.10
2018-10-12T16:17:39.802Z,2.40
2018-10-12T16:20:07.182Z,3.50
2018-10-12T16:22:34.513Z,2.30
2018-10-12T16:25:07.278Z,3.03
2018-10-12T16:27:34.614Z,2.30
2018-10-12T16:30:01.983Z,2.77
2018-10-12T16:32:29.314Z,2.20
2018-10-12T16:34:56.663Z,2.30
2018-10-12T16:37:23.986Z,2.20
2018-10-12T16:39:51.396Z,2.13
2018-10-12T16:42:18.875Z,2.10
2018-10-12T16:44:46.328Z,2.63
2018-10-12T16:47:14.308Z,3.20
2018-10-12T16:49:41.738Z,2.67
2018-10-12T16:52:09.068Z,2.20
2018-10-12T16:54:36.434Z,3.00
2018-10-12T16:57:03.776Z,2.03
2018-10-12T16:59:31.141Z,2.10
2018-10-12T17:01:58.611Z,2.23
2018-10-12T17:04:25.977Z,2.17
2018-10-12T17:06:53.421Z,2.57
2018-10-12T17:09:20.829Z,8.13
2018-10-12T17:11:48.218Z,4.13
2018-10-12T17:14:15.897Z,4.03
2018-10-12T17:16:43.795Z,2.80
2018-10-12T17:19:11.119Z,3.37
2018-10-12T17:21:38.557Z,4.30
2018-10-12T17:24:05.959Z,4.60
2018-10-12T17:26:33.307Z,3.60
2018-10-12T17:29:00.661Z,3.60
2018-10-12T17:31:28.081Z,2.70
2018-10-12T17:33:55.410Z,3.37
2018-10-12T17:36:22.919Z,3.40
2018-10-12T17:38:50.445Z,3.37
2018-10-12T17:41:19.859Z,3.37
2018-10-12T17:43:47.695Z,2.03
2018-10-12T17:46:15.784Z,2.43
2018-10-12T17:48:43.170Z,3.37
2018-10-12T17:51:10.940Z,2.80
2018-10-12T17:53:39.256Z,2.80
2018-10-12T17:56:06.791Z,2.80
2018-10-12T17:58:34.429Z,2.30
2018-10-12T18:01:01.791Z,2.50
2018-10-12T18:03:29.122Z,2.47
2018-10-12T18:05:56.570Z,2.57
2018-10-12T18:08:23.959Z,2.57
2018-10-12T18:10:51.464Z,2.40
2018-10-12T18:13:18.923Z,3.20
2018-10-12T18:15:46.727Z,3.27
2018-10-12T18:18:14.289Z,3.40
2018-10-12T18:20:41.703Z,3.90
2018-10-12T18:23:09.090Z,2.83
2018-10-12T18:25:36.441Z,3.40
2018-10-12T18:28:04.003Z,3.30
2018-10-12T18:30:31.377Z,2.93
2018-10-12T18:32:58.704Z,3.60
2018-10-12T18:35:26.149Z,3.50
2018-10-12T18:37:53.483Z,26.53
2018-10-12T18:40:20.915Z,9.60
2018-10-12T18:42:48.650Z,3.80
2018-10-12T18:45:16.428Z,2.97
2018-10-12T18:47:43.917Z,3.60
2018-10-12T18:50:11.235Z,3.57
2018-10-12T18:52:38.582Z,3.20
2018-10-12T18:55:05.921Z,3.17
2018-10-12T18:57:34.154Z,3.07
2018-10-12T19:00:01.979Z,3.40
2018-10-12T19:02:29.279Z,3.43
2018-10-12T19:04:56.829Z,3.50
2018-10-12T19:07:24.178Z,4.53
2018-10-12T19:09:51.546Z,3.93
2018-10-12T19:12:19.061Z,4.33
2018-10-12T19:14:46.789Z,5.30
2018-10-12T19:17:14.166Z,4.40
2018-10-12T19:19:41.539Z,5.13
2018-10-12T19:22:08.882Z,5.10
2018-10-12T19:24:36.219Z,5.37
2018-10-12T19:27:03.572Z,5.03
2018-10-12T19:29:30.896Z,4.50
2018-10-12T19:31:58.350Z,4.90
2018-10-12T19:34:25.604Z,4.43
2018-10-12T19:36:53.105Z,5.20
2018-10-12T19:39:20.607Z,5.60
2018-10-12T19:41:48.142Z,5.50
2018-10-12T19:44:15.720Z,6.23
2018-10-12T19:46:43.085Z,4.80
2018-10-12T19:49:10.414Z,4.73
2018-10-12T19:51:37.739Z,5.70
2018-10-12T19:54:05.102Z,4.77
2018-10-12T19:56:32.627Z,5.20
2018-10-12T19:59:00.362Z,5.00
2018-10-12T20:01:28.152Z,5.40
2018-10-12T20:03:56.005Z,5.10
2018-10-12T20:06:23.899Z,4.60
2018-10-12T20:08:51.943Z,4.83
2018-10-12T20:11:21.046Z,4.77
2018-10-12T20:13:49.283Z,4.23
2018-10-12T20:16:17.315Z,6.07
2018-10-12T20:18:44.861Z,5.83
2018-10-12T20:21:12.564Z,5.03
2018-10-12T20:23:40.291Z,4.63
2018-10-12T20:26:07.938Z,5.20
2018-10-12T20:28:35.628Z,5.10
2018-10-12T20:31:02.967Z,3.97
2018-10-12T20:33:30.752Z,4.40
2018-10-12T20:35:58.648Z,3.70
2018-10-12T20:38:26.401Z,3.50
2018-10-12T20:40:54.220Z,3.70
2018-10-12T20:43:21.851Z,4.73
2018-10-12T20:45:49.959Z,5.00
2018-10-12T20:48:17.914Z,4.10
2018-10-12T20:50:45.806Z,3.97
2018-10-12T20:53:13.523Z,4.40
2018-10-12T20:55:40.860Z,4.17
2018-10-12T20:58:13.699Z,4.40
2018-10-12T21:00:41.046Z,3.33
2018-10-12T21:03:08.383Z,3.93
2018-10-12T21:05:36.169Z,4.90
2018-10-12T21:08:03.821Z,3.60
2018-10-12T21:10:31.568Z,3.90
2018-10-12T21:12:59.411Z,3.67
2018-10-12T21:15:26.790Z,4.10
2018-10-12T21:17:54.285Z,3.60
2018-10-12T21:20:21.941Z,4.57
2018-10-12T21:22:49.653Z,4.50
2018-10-12T21:25:17.006Z,4.40
2018-10-12T21:27:44.332Z,3.80
2018-10-12T21:30:12.219Z,6.00
2018-10-12T21:32:39.854Z,3.67
2018-10-12T21:35:07.581Z,3.80
2018-10-12T21:37:35.248Z,4.50
2018-10-12T21:40:02.608Z,3.40
2018-10-12T21:42:30.140Z,3.73
2018-10-12T21:44:57.519Z,4.47
2018-10-12T21:47:24.948Z,3.97
2018-10-12T21:49:52.588Z,5.10
2018-10-12T21:52:20.318Z,3.90
2018-10-12T21:54:47.723Z,3.53
2018-10-12T21:57:15.058Z,4.50
2018-10-12T21:59:42.427Z,4.33
2018-10-12T22:02:09.762Z,4.53
2018-10-12T22:04:37.143Z,4.47
2018-10-12T22:07:04.493Z,4.00
2018-10-12T22:09:31.850Z,4.50
2018-10-12T22:11:59.305Z,4.47
2018-10-12T22:14:27.137Z,5.00
2018-10-12T22:16:54.893Z,5.10
2018-10-12T22:19:22.883Z,4.87
2018-10-12T22:21:51.070Z,5.20
2018-10-12T22:24:18.467Z,5.90
2018-10-12T22:26:45.798Z,6.30
2018-10-12T22:29:13.127Z,5.10
2018-10-12T22:31:40.512Z,5.70
2018-10-12T22:34:07.955Z,5.60
2018-10-12T22:36:35.352Z,5.77
2018-10-12T22:39:02.779Z,6.33
2018-10-12T22:41:30.322Z,5.03
2018-10-12T22:43:57.757Z,5.97
2018-10-12T22:46:25.183Z,5.60
2018-10-12T22:48:52.695Z,5.50
2018-10-12T22:51:20.150Z,5.53
2018-10-12T22:53:47.469Z,5.53
2018-10-12T22:56:14.837Z,5.30
2018-10-12T22:58:42.162Z,5.97
2018-10-12T23:01:09.540Z,5.73
2018-10-12T23:03:36.861Z,5.50
2018-10-12T23:06:04.212Z,5.97
2018-10-12T23:08:31.667Z,5.30
2018-10-12T23:10:59.034Z,5.50
2018-10-12T23:13:26.488Z,6.53
2018-10-12T23:15:54.144Z,5.50
2018-10-12T23:18:21.863Z,5.43
2018-10-12T23:20:49.203Z,5.83
2018-10-12T23:23:16.924Z,5.73
2018-10-12T23:25:44.635Z,5.40
2018-10-12T23:28:12.335Z,5.57
2018-10-12T23:30:40.137Z,5.67
2018-10-12T23:33:12.931Z,5.70
2018-10-12T23:35:40.289Z,6.20
2018-10-12T23:38:07.624Z,5.20
2018-10-12T23:40:34.993Z,5.50
2018-10-12T23:43:02.511Z,5.47
2018-10-12T23:45:29.954Z,6.03
2018-10-12T23:47:57.651Z,5.93
2018-10-12T23:50:25.357Z,6.10
2018-10-12T23:52:53.104Z,5.37
2018-10-12T23:55:20.512Z,5.28
2018-10-12T23:57:47.846Z,4.97
